createdAt,value
2023-02-02T00:01:56.187Z,97670.75
2023-02-02T00:04:35.736Z,97656.31
2023-02-02T00:07:05.671Z,97657.03
2023-02-02T00:09:35.015Z,97659.13
2023-02-02T00:12:04.494Z,97668.50
2023-02-02T00:14:33.811Z,97665.66
2023-02-02T00:17:04.157Z,97655.31
2023-02-02T00:19:33.665Z,97663.34
2023-02-02T00:22:03.336Z,97653.00
2023-02-02T00:24:32.642Z,97651.38
2023-02-02T00:27:01.915Z,97658.16
2023-02-02T00:29:32.314Z,97646.94
2023-02-02T00:32:01.656Z,97639.81
2023-02-02T00:34:30.996Z,97625.53
2023-02-02T00:37:00.277Z,97632.47
2023-02-02T00:39:30.904Z,97634.06
2023-02-02T00:42:00.139Z,97628.28
2023-02-02T00:44:47.940Z,97608.25
2023-02-02T00:47:18.002Z,97612.28
2023-02-02T00:49:47.374Z,97626.25
2023-02-02T00:52:16.657Z,97637.81
2023-02-02T00:54:46.993Z,97665.75
2023-02-02T00:57:16.313Z,97685.53
2023-02-02T00:59:45.540Z,97684.66
2023-02-02T01:02:15.003Z,97673.44
2023-02-02T01:04:44.409Z,97676.31
2023-02-02T01:07:13.747Z,97676.88
2023-02-02T01:09:43.028Z,97675.19
2023-02-02T01:12:12.349Z,97666.88
2023-02-02T01:14:41.562Z,97638.88
2023-02-02T01:17:11.119Z,97639.78
2023-02-02T01:19:40.946Z,97653.41
2023-02-02T01:22:10.172Z,97665.63
2023-02-02T01:24:39.547Z,97644.66
2023-02-02T01:27:08.859Z,97652.34
2023-02-02T01:29:38.108Z,97668.56
2023-02-02T01:32:07.563Z,97660.50
2023-02-02T01:34:40.681Z,97659.53
2023-02-02T01:37:10.382Z,97678.00
2023-02-02T01:39:39.629Z,97671.09
2023-02-02T01:42:21.176Z,97675.03
2023-02-02T01:45:11.573Z,97677.16
2023-02-02T01:47:50.910Z,97683.75
2023-02-02T01:50:26.692Z,97674.56
2023-02-02T01:53:00.700Z,97677.78
2023-02-02T01:55:34.689Z,97666.81
2023-02-02T01:58:18.037Z,97671.00
2023-02-02T02:00:47.470Z,97654.34
2023-02-02T02:03:21.466Z,97644.03
2023-02-02T02:06:05.774Z,97642.75
2023-02-02T02:08:44.318Z,97634.41
2023-02-02T02:11:14.650Z,97636.34
2023-02-02T02:14:02.660Z,97644.53
2023-02-02T02:17:51.041Z,97642.88
2023-02-02T02:20:57.188Z,97632.63
2023-02-02T02:24:36.527Z,97630.75
2023-02-02T02:27:23.778Z,97628.72
2023-02-02T02:30:38.549Z,97634.78
2023-02-02T02:33:28.153Z,97640.47
2023-02-02T02:36:05.722Z,97643.22
2023-02-02T02:39:11.054Z,97637.50
2023-02-02T02:41:49.934Z,97651.75
2023-02-02T02:44:22.137Z,97657.34
2023-02-02T02:46:51.803Z,97659.31
2023-02-02T02:49:21.943Z,97652.03
2023-02-02T02:51:56.352Z,97648.03
2023-02-02T02:54:33.199Z,97648.31
2023-02-02T02:57:40.179Z,97636.44
2023-02-02T03:00:18.463Z,97631.53
2023-02-02T03:03:16.449Z,97637.56
2023-02-02T03:06:11.798Z,97635.31
2023-02-02T03:09:00.217Z,97627.47
2023-02-02T03:11:29.841Z,97632.47
2023-02-02T03:13:59.076Z,97631.56
2023-02-02T03:16:28.415Z,97630.47
2023-02-02T03:18:58.122Z,97637.88
2023-02-02T03:21:27.423Z,97648.84
2023-02-02T03:23:56.639Z,97651.88
2023-02-02T03:26:26.367Z,97665.09
2023-02-02T03:28:59.852Z,97671.31
2023-02-02T03:31:29.883Z,97682.78
2023-02-02T03:33:59.162Z,97680.22
2023-02-02T03:36:28.425Z,97692.63
2023-02-02T03:38:57.733Z,97684.72
2023-02-02T03:41:26.985Z,97694.25
2023-02-02T03:43:56.244Z,97684.00
2023-02-02T03:46:25.483Z,97694.56
2023-02-02T03:48:54.707Z,97681.91
2023-02-02T03:51:23.984Z,97686.38
2023-02-02T03:53:53.282Z,97681.50
2023-02-02T03:56:22.491Z,97689.50
2023-02-02T03:58:51.743Z,97694.03
2023-02-02T04:01:29.395Z,97703.25
2023-02-02T04:03:59.858Z,97695.66
2023-02-02T04:06:29.206Z,97695.66
2023-02-02T04:08:58.436Z,97701.81
2023-02-02T04:11:27.700Z,97699.75
2023-02-02T04:13:56.933Z,97707.94
2023-02-02T04:16:26.388Z,97698.06
2023-02-02T04:18:55.660Z,97709.38
2023-02-02T04:21:24.871Z,97713.25
2023-02-02T04:23:54.747Z,97703.72
2023-02-02T04:26:27.258Z,97705.19
2023-02-02T04:28:56.537Z,97715.09
2023-02-02T04:31:25.874Z,97714.00
2023-02-02T04:33:55.905Z,97710.06
2023-02-02T04:36:25.885Z,97700.31
2023-02-02T04:38:55.956Z,97705.53
2023-02-02T04:41:25.385Z,97708.03
2023-02-02T04:43:54.620Z,97709.34
2023-02-02T04:46:23.892Z,97710.03
2023-02-02T04:48:53.061Z,97712.31
2023-02-02T04:51:22.269Z,97704.63
2023-02-02T04:53:51.462Z,97712.72
2023-02-02T04:56:20.868Z,97705.47
2023-02-02T04:58:50.062Z,97715.34
2023-02-02T05:01:20.967Z,97723.91
2023-02-02T05:03:50.687Z,97730.06
2023-02-02T05:06:20.067Z,97723.44
2023-02-02T05:08:49.867Z,97727.00
2023-02-02T05:11:24.063Z,97731.50
2023-02-02T05:13:55.309Z,97732.78
2023-02-02T05:16:27.113Z,97733.59
2023-02-02T05:18:59.600Z,97730.69
2023-02-02T05:21:29.303Z,97721.50
2023-02-02T05:23:59.822Z,97732.09
2023-02-02T05:26:29.449Z,97735.66
2023-02-02T05:28:58.715Z,97749.22
2023-02-02T05:31:28.216Z,97752.47
2023-02-02T05:33:57.714Z,97756.69
2023-02-02T05:36:27.650Z,97755.06
2023-02-02T05:38:56.957Z,97767.34
2023-02-02T05:41:26.293Z,97756.53
2023-02-02T05:43:55.557Z,97761.38
2023-02-02T05:46:24.980Z,97761.84
2023-02-02T05:48:54.498Z,97772.78
2023-02-02T05:51:31.857Z,97763.47
2023-02-02T05:54:01.214Z,97767.00
2023-02-02T05:56:30.977Z,97769.28
2023-02-02T05:59:00.284Z,97763.81
2023-02-02T06:01:29.486Z,97766.41
2023-02-02T06:03:58.815Z,97767.66
2023-02-02T06:06:28.325Z,97765.09
2023-02-02T06:08:57.573Z,97758.34
2023-02-02T06:11:27.019Z,97767.66
2023-02-02T06:13:56.849Z,97769.06
2023-02-02T06:16:26.595Z,97777.94
2023-02-02T06:18:56.169Z,97779.66
2023-02-02T06:21:25.534Z,97780.06
2023-02-02T06:23:55.121Z,97784.22
2023-02-02T06:26:25.416Z,97778.00
2023-02-02T06:28:55.588Z,97785.38
2023-02-02T06:31:25.174Z,97785.97
2023-02-02T06:33:58.512Z,97789.25
2023-02-02T06:36:28.385Z,97781.88
2023-02-02T06:38:58.265Z,97775.47
2023-02-02T06:41:27.546Z,97787.84
2023-02-02T06:43:56.749Z,97777.75
2023-02-02T06:46:26.175Z,97782.50
2023-02-02T06:48:55.581Z,97781.53
2023-02-02T06:51:24.854Z,97781.63
2023-02-02T06:53:54.157Z,97771.84
2023-02-02T06:56:23.562Z,97777.81
2023-02-02T06:58:52.786Z,97783.97
2023-02-02T07:01:22.255Z,97784.34
2023-02-02T07:03:52.089Z,97791.41
2023-02-02T07:06:26.496Z,97782.13
2023-02-02T07:09:02.135Z,97780.66
2023-02-02T07:11:34.712Z,97770.56
2023-02-02T07:14:06.504Z,97779.56
2023-02-02T07:16:36.125Z,97781.16
2023-02-02T07:19:05.529Z,97784.69
2023-02-02T07:21:37.466Z,97793.91
2023-02-02T07:24:07.516Z,97794.09
2023-02-02T07:26:37.136Z,97797.13
2023-02-02T07:29:06.806Z,97802.03
2023-02-02T07:31:36.913Z,97800.09
2023-02-02T07:34:06.413Z,97801.34
2023-02-02T07:36:36.199Z,97800.00
2023-02-02T07:39:07.804Z,97803.41
2023-02-02T07:41:37.602Z,97808.81
2023-02-02T07:44:15.663Z,97801.44
2023-02-02T07:46:47.636Z,97813.06
2023-02-02T07:49:19.835Z,97824.44
2023-02-02T07:51:49.411Z,97819.00
2023-02-02T07:54:18.737Z,97819.00
2023-02-02T07:56:47.987Z,97811.00
2023-02-02T07:59:17.292Z,97818.75
2023-02-02T08:01:46.678Z,97827.50
2023-02-02T08:04:16.087Z,97817.94
2023-02-02T08:06:45.312Z,97828.34
2023-02-02T08:09:14.674Z,97828.50
2023-02-02T08:11:43.925Z,97827.59
2023-02-02T08:14:14.345Z,97839.50
2023-02-02T08:16:43.672Z,97847.44
2023-02-02T08:19:13.219Z,97849.75
2023-02-02T08:21:42.609Z,97838.91
2023-02-02T08:24:11.889Z,97845.84
2023-02-02T08:26:41.160Z,97842.94
2023-02-02T08:29:17.312Z,97846.47
2023-02-02T08:31:46.914Z,97846.47
2023-02-02T08:34:16.427Z,97847.47
2023-02-02T08:36:45.691Z,97854.28
2023-02-02T08:39:15.108Z,97846.66
2023-02-02T08:41:45.388Z,97851.56
2023-02-02T08:44:16.284Z,97863.78
2023-02-02T08:46:45.667Z,97862.28
2023-02-02T08:49:15.395Z,97855.81
2023-02-02T08:51:44.688Z,97853.13
2023-02-02T08:54:14.120Z,97851.56
2023-02-02T08:56:43.426Z,97853.72
2023-02-02T08:59:12.679Z,97852.78
2023-02-02T09:01:41.898Z,97859.47
2023-02-02T09:04:16.370Z,97858.19
2023-02-02T09:06:46.768Z,97863.13
2023-02-02T09:09:17.392Z,97873.31
2023-02-02T09:11:46.727Z,97876.63
2023-02-02T09:14:15.977Z,97879.84
2023-02-02T09:16:46.267Z,97882.09
2023-02-02T09:19:15.697Z,97881.59
2023-02-02T09:21:45.114Z,97885.91
2023-02-02T09:24:14.697Z,97869.88
2023-02-02T09:26:45.179Z,97864.41
2023-02-02T09:29:17.887Z,97873.50
2023-02-02T09:31:47.306Z,97865.03
2023-02-02T09:34:16.943Z,97877.56
2023-02-02T09:36:47.516Z,97883.94
2023-02-02T09:39:18.422Z,97883.44
2023-02-02T09:42:04.361Z,97883.97
2023-02-02T09:45:08.238Z,97881.25
2023-02-02T09:48:01.182Z,97888.16
2023-02-02T09:50:48.409Z,97884.28
2023-02-02T09:53:55.550Z,97885.78
2023-02-02T09:56:37.654Z,97881.72
2023-02-02T09:59:20.921Z,97878.94
2023-02-02T10:02:04.611Z,97876.03
2023-02-02T10:04:43.187Z,97887.13
2023-02-02T10:07:21.509Z,97878.94
2023-02-02T10:09:53.836Z,97884.34
2023-02-02T10:12:47.169Z,97876.44
2023-02-02T10:15:28.332Z,97884.88
2023-02-02T10:18:20.627Z,97887.50
2023-02-02T10:21:21.758Z,97903.66
2023-02-02T10:23:51.422Z,97886.03
2023-02-02T10:26:37.215Z,97882.22
2023-02-02T10:29:20.038Z,97882.03
2023-02-02T10:31:58.322Z,97870.09
2023-02-02T10:34:42.030Z,97880.44
2023-02-02T10:37:30.779Z,97863.38
2023-02-02T10:40:15.738Z,97871.44
2023-02-02T10:43:24.302Z,97871.81
2023-02-02T10:45:55.863Z,97870.16
2023-02-02T10:48:35.729Z,97866.44
2023-02-02T10:51:18.311Z,97858.53
2023-02-02T10:53:54.663Z,97853.72
2023-02-02T10:56:37.531Z,97855.47
2023-02-02T10:59:17.313Z,97861.47
2023-02-02T11:01:46.595Z,97867.78
2023-02-02T11:04:42.272Z,97862.38
2023-02-02T11:07:20.442Z,97857.06
2023-02-02T11:09:49.754Z,97855.19
2023-02-02T11:12:33.267Z,97860.97
2023-02-02T11:15:22.332Z,97860.25
2023-02-02T11:17:51.711Z,97856.59
2023-02-02T11:20:39.146Z,97860.56
2023-02-02T11:23:20.988Z,97859.84
2023-02-02T11:26:05.404Z,97849.41
2023-02-02T11:28:37.259Z,97859.63
2023-02-02T11:31:06.660Z,97845.72
2023-02-02T11:33:36.983Z,97851.94
2023-02-02T11:36:20.838Z,97858.34
2023-02-02T11:39:16.946Z,97852.75
2023-02-02T11:41:46.272Z,97852.78
2023-02-02T11:44:26.881Z,97851.78
2023-02-02T11:46:57.477Z,97852.59
2023-02-02T11:49:28.323Z,97849.25
2023-02-02T11:52:05.197Z,97844.78
2023-02-02T11:54:38.287Z,97843.59
2023-02-02T11:57:15.825Z,97843.47
2023-02-02T11:59:46.476Z,97836.75
2023-02-02T12:02:30.119Z,97848.06
2023-02-02T12:05:21.206Z,97851.34
2023-02-02T12:07:50.695Z,97849.44
2023-02-02T12:11:04.040Z,97848.06
2023-02-02T12:14:28.552Z,97851.59
2023-02-02T12:17:35.185Z,97848.72
2023-02-02T12:20:58.741Z,97857.44
2023-02-02T12:23:44.667Z,97856.44
2023-02-02T12:26:24.038Z,97865.28
2023-02-02T12:29:18.848Z,97855.09
2023-02-02T12:32:12.118Z,97861.69
2023-02-02T12:35:21.549Z,97853.53
2023-02-02T12:38:09.509Z,97857.34
2023-02-02T12:41:18.727Z,97850.63
2023-02-02T12:44:11.414Z,97865.41
2023-02-02T12:46:54.543Z,97854.97
2023-02-02T12:49:44.490Z,97868.38
2023-02-02T12:52:51.267Z,97869.97
2023-02-02T12:55:30.417Z,97859.34
2023-02-02T12:58:58.093Z,97858.56
2023-02-02T13:01:46.295Z,97857.19
2023-02-02T13:04:21.360Z,97857.25
2023-02-02T13:07:11.340Z,97858.28
2023-02-02T13:09:50.829Z,97851.31
2023-02-02T13:12:24.554Z,97854.75
2023-02-02T13:15:02.540Z,97867.56
2023-02-02T13:17:54.169Z,97864.09
2023-02-02T13:20:31.446Z,97868.22
2023-02-02T13:23:09.808Z,97873.81
2023-02-02T13:26:03.068Z,97872.22
2023-02-02T13:28:46.996Z,97865.03
2023-02-02T13:31:24.776Z,97884.56
2023-02-02T13:34:41.496Z,97869.56
2023-02-02T13:37:41.915Z,97879.72
2023-02-02T13:40:35.068Z,97872.22
2023-02-02T13:43:32.267Z,97891.09
2023-02-02T13:46:22.769Z,97887.00
2023-02-02T13:49:05.019Z,97889.81
2023-02-02T13:51:55.409Z,97892.41
2023-02-02T13:55:20.686Z,97893.00
2023-02-02T13:58:52.518Z,97895.41
2023-02-02T14:01:25.429Z,97893.22
2023-02-02T14:03:57.568Z,97895.59
2023-02-02T14:06:30.887Z,97896.69
2023-02-02T14:09:05.868Z,97900.31
2023-02-02T14:11:42.497Z,97896.16
2023-02-02T14:14:33.471Z,97901.69
2023-02-02T14:17:16.626Z,97911.66
2023-02-02T14:19:57.570Z,97907.34
2023-02-02T14:22:43.377Z,97903.22
2023-02-02T14:25:33.526Z,97917.41
2023-02-02T14:28:10.124Z,97911.75
2023-02-02T14:30:40.702Z,97909.03
2023-02-02T14:33:21.808Z,97907.88
2023-02-02T14:35:52.830Z,97915.44
2023-02-02T14:38:54.946Z,97919.00
2023-02-02T14:41:48.684Z,97936.00
2023-02-02T14:44:17.867Z,97917.66
2023-02-02T14:46:49.282Z,97936.69
2023-02-02T14:49:27.002Z,97916.47
2023-02-02T14:52:04.649Z,97930.44
2023-02-02T14:54:40.135Z,97909.25
2023-02-02T14:57:34.257Z,97916.06
2023-02-02T15:00:04.160Z,97926.47
2023-02-02T15:02:38.000Z,97931.50
2023-02-02T15:05:46.199Z,97943.13
2023-02-02T15:08:28.164Z,97955.09
2023-02-02T15:11:23.437Z,97965.97
2023-02-02T15:14:09.426Z,97962.59
2023-02-02T15:16:42.631Z,97970.69
2023-02-02T15:19:23.622Z,97981.28
2023-02-02T15:21:59.348Z,97979.03
2023-02-02T15:24:35.159Z,97995.72
2023-02-02T15:27:08.757Z,97986.06
2023-02-02T15:29:45.956Z,97994.38
2023-02-02T15:32:20.504Z,98001.84
2023-02-02T15:34:58.192Z,98002.09
2023-02-02T15:37:40.273Z,98013.44
2023-02-02T15:40:23.274Z,98019.31
2023-02-02T15:43:09.166Z,98020.19
2023-02-02T15:45:53.100Z,98040.44
2023-02-02T15:48:30.166Z,98025.88
2023-02-02T15:51:04.798Z,98035.38
2023-02-02T15:53:43.360Z,98040.19
2023-02-02T15:56:25.050Z,98045.28
2023-02-02T15:58:58.735Z,98059.53
2023-02-02T16:01:32.618Z,98072.03
2023-02-02T16:04:08.531Z,98082.88
2023-02-02T16:06:38.093Z,98069.97
2023-02-02T16:09:11.454Z,98075.63
2023-02-02T16:11:45.543Z,98090.94
2023-02-02T16:14:19.767Z,98111.06
2023-02-02T16:16:49.817Z,98102.53
2023-02-02T16:19:25.707Z,98106.53
2023-02-02T16:22:16.462Z,98103.00
2023-02-02T16:24:54.510Z,98094.47
2023-02-02T16:27:30.190Z,98095.59
2023-02-02T16:30:08.985Z,98088.81
2023-02-02T16:32:39.280Z,98080.25
2023-02-02T16:35:37.075Z,98083.16
2023-02-02T16:38:25.891Z,98098.00
2023-02-02T16:41:04.034Z,98124.13
2023-02-02T16:43:34.743Z,98115.75
2023-02-02T16:46:14.150Z,98127.84
2023-02-02T16:48:57.897Z,98129.28
2023-02-02T16:51:29.318Z,98152.88
2023-02-02T16:54:06.533Z,98152.38
2023-02-02T16:56:39.093Z,98150.31
2023-02-02T16:59:26.988Z,98143.22
2023-02-02T17:02:16.537Z,98152.09
2023-02-02T17:04:52.130Z,98152.75
2023-02-02T17:07:22.306Z,98144.84
2023-02-02T17:10:19.183Z,98133.38
2023-02-02T17:12:48.903Z,98138.53
2023-02-02T17:15:18.124Z,98157.25
2023-02-02T17:17:49.506Z,98159.84
2023-02-02T17:20:20.332Z,98159.69
2023-02-02T17:23:00.002Z,98154.03
2023-02-02T17:25:37.685Z,98166.31
2023-02-02T17:28:14.586Z,98166.94
2023-02-02T17:30:47.361Z,98171.50
2023-02-02T17:33:20.051Z,98184.25
2023-02-02T17:35:55.285Z,98192.00
2023-02-02T17:38:27.867Z,98189.44
2023-02-02T17:41:01.860Z,98212.53
2023-02-02T17:43:32.965Z,98220.59
2023-02-02T17:46:03.502Z,98225.44
2023-02-02T17:48:34.425Z,98232.25
2023-02-02T17:51:06.675Z,98237.06
2023-02-02T17:53:35.900Z,98237.72
2023-02-02T17:56:05.505Z,98232.56
2023-02-02T17:58:34.772Z,98246.59
2023-02-02T18:01:04.497Z,98253.88
2023-02-02T18:03:37.320Z,98259.06
2023-02-02T18:06:07.216Z,98255.81
2023-02-02T18:08:36.452Z,98254.34
2023-02-02T18:11:05.843Z,98258.09
2023-02-02T18:13:35.022Z,98267.78
2023-02-02T18:16:06.749Z,98272.28
2023-02-02T18:18:36.144Z,98270.34
2023-02-02T18:21:10.434Z,98260.34
2023-02-02T18:23:40.859Z,98256.94
2023-02-02T18:26:18.075Z,98266.00
2023-02-02T18:28:48.921Z,98271.31
2023-02-02T18:31:21.517Z,98269.41
2023-02-02T18:33:51.232Z,98284.25
2023-02-02T18:36:23.575Z,98286.84
2023-02-02T18:38:53.966Z,98277.97
2023-02-02T18:41:23.202Z,98276.50
2023-02-02T18:43:55.163Z,98283.59
2023-02-02T18:46:24.567Z,98295.88
2023-02-02T18:48:55.361Z,98290.72
2023-02-02T18:51:24.978Z,98296.88
2023-02-02T18:54:00.198Z,98300.09
2023-02-02T18:56:30.662Z,98298.50
2023-02-02T18:58:59.943Z,98305.09
2023-02-02T19:01:29.305Z,98312.03
2023-02-02T19:03:59.417Z,98312.19
2023-02-02T19:06:47.796Z,98313.00
2023-02-02T19:09:17.504Z,98322.06
2023-02-02T19:11:50.521Z,98321.09
2023-02-02T19:14:30.121Z,98319.50
2023-02-02T19:17:28.086Z,98338.88
2023-02-02T19:20:30.944Z,98339.88
2023-02-02T19:23:10.736Z,98341.47
2023-02-02T19:25:42.451Z,98341.66
2023-02-02T19:28:30.729Z,98345.66
2023-02-02T19:31:02.431Z,98339.22
2023-02-02T19:33:49.609Z,98350.38
2023-02-02T19:36:29.046Z,98351.66
2023-02-02T19:39:19.432Z,98341.00
2023-02-02T19:41:58.707Z,98342.63
2023-02-02T19:44:34.992Z,98337.59
2023-02-02T19:47:33.964Z,98343.72
2023-02-02T19:50:20.658Z,98362.16
2023-02-02T19:52:51.052Z,98361.53
2023-02-02T19:55:35.956Z,98351.97
2023-02-02T19:58:18.364Z,98361.31
2023-02-02T20:00:51.584Z,98363.41
2023-02-02T20:03:27.878Z,98369.69
2023-02-02T20:05:58.100Z,98365.00
2023-02-02T20:08:42.103Z,98372.56
2023-02-02T20:11:35.699Z,98372.25
2023-02-02T20:14:20.094Z,98379.81
2023-02-02T20:16:53.582Z,98382.19
2023-02-02T20:19:28.915Z,98383.34
2023-02-02T20:21:58.306Z,98389.75
2023-02-02T20:24:42.198Z,98397.31
2023-02-02T20:27:20.967Z,98395.84
2023-02-02T20:29:53.144Z,98401.50
2023-02-02T20:32:41.657Z,98410.81
2023-02-02T20:35:34.425Z,98407.72
2023-02-02T20:38:23.891Z,98409.28
2023-02-02T20:40:53.451Z,98406.34
2023-02-02T20:43:22.847Z,98415.09
2023-02-02T20:45:52.484Z,98422.66
2023-02-02T20:48:21.931Z,98422.88
2023-02-02T20:50:51.170Z,98429.72
2023-02-02T20:53:20.534Z,98419.09
2023-02-02T20:55:49.966Z,98430.28
2023-02-02T20:58:22.034Z,98420.94
2023-02-02T21:00:52.215Z,98434.56
2023-02-02T21:03:21.782Z,98436.69
2023-02-02T21:05:50.964Z,98451.72
2023-02-02T21:08:20.167Z,98447.72
2023-02-02T21:10:49.418Z,98453.56
2023-02-02T21:13:18.740Z,98454.53
2023-02-02T21:15:48.374Z,98466.66
2023-02-02T21:18:17.596Z,98466.66
2023-02-02T21:20:46.833Z,98467.97
2023-02-02T21:23:16.766Z,98465.22
2023-02-02T21:25:45.968Z,98470.09
2023-02-02T21:28:15.209Z,98459.38
2023-02-02T21:30:44.514Z,98466.34
2023-02-02T21:33:13.822Z,98464.56
2023-02-02T21:35:42.996Z,98468.59
2023-02-02T21:38:15.515Z,98463.22
2023-02-02T21:40:46.742Z,98459.63
2023-02-02T21:43:18.677Z,98479.31
2023-02-02T21:45:57.204Z,98479.78
2023-02-02T21:48:34.580Z,98472.47
2023-02-02T21:51:31.584Z,98489.97
2023-02-02T21:54:22.027Z,98505.13
2023-02-02T21:56:52.639Z,98493.53
2023-02-02T21:59:35.936Z,98497.38
2023-02-02T22:02:44.803Z,98501.56
2023-02-02T22:05:24.219Z,98502.97
2023-02-02T22:07:57.293Z,98507.94
2023-02-02T22:10:42.338Z,98518.22
2023-02-02T22:13:20.244Z,98528.88
2023-02-02T22:15:52.691Z,98537.19
2023-02-02T22:18:26.368Z,98545.00
2023-02-02T22:20:56.565Z,98548.38
2023-02-02T22:23:28.555Z,98547.53
2023-02-02T22:25:59.106Z,98552.69
2023-02-02T22:28:42.488Z,98570.47
2023-02-02T22:31:11.785Z,98566.59
2023-02-02T22:33:40.997Z,98572.53
2023-02-02T22:36:10.199Z,98577.94
2023-02-02T22:38:39.427Z,98585.22
2023-02-02T22:41:09.362Z,98586.66
2023-02-02T22:43:38.575Z,98575.28
2023-02-02T22:46:07.982Z,98581.03
2023-02-02T22:48:37.201Z,98570.63
2023-02-02T22:51:06.458Z,98599.50
2023-02-02T22:53:35.693Z,98601.69
2023-02-02T22:56:05.706Z,98614.09
2023-02-02T22:58:34.982Z,98613.69
2023-02-02T23:01:05.060Z,98625.97
2023-02-02T23:03:34.286Z,98629.63
2023-02-02T23:06:03.562Z,98643.63
2023-02-02T23:08:32.753Z,98644.91
2023-02-02T23:11:01.964Z,98644.13
2023-02-02T23:13:31.168Z,98658.13
2023-02-02T23:16:00.409Z,98650.97
2023-02-02T23:18:29.650Z,98646.91
2023-02-02T23:20:58.794Z,98662.38
2023-02-02T23:23:28.104Z,98656.72
2023-02-02T23:25:57.328Z,98670.84
2023-02-02T23:28:26.578Z,98664.84
2023-02-02T23:30:59.256Z,98661.91
2023-02-02T23:33:28.607Z,98678.47
2023-02-02T23:35:57.853Z,98693.69
2023-02-02T23:38:27.073Z,98694.66
2023-02-02T23:40:56.375Z,98701.03
2023-02-02T23:43:25.656Z,98701.34
2023-02-02T23:45:54.917Z,98709.22
2023-02-02T23:48:24.466Z,98713.13
2023-02-02T23:50:54.352Z,98705.69
2023-02-02T23:53:24.964Z,98713.03
2023-02-02T23:55:54.956Z,98720.09
2023-02-02T23:58:24.323Z,98728.50
